AirNav   ATP
 
 1134 users online  

53VA Horse Feathers Airport
Midland, Virginia, USA

GOING TO MIDLAND?


FAA INFORMATION EFFECTIVE 21 JUNE 2018

Location

FAA Identifier: 53VA
Lat/Long: 38-38-02.4350N / 077-45-26.9730W
38-38.040583N / 077-45.449550W
38.6340097 / -77.7574925
(estimated)
Elevation: 390 ft. / 118.9 m (surveyed)
Variation: 09W (1985)
From city: 3 miles NW of MIDLAND, VA
Time zone: UTC -4 (UTC -5 during Standard Time)
Zip code: 22728

Airport Operations

Airport use: Private use. Permission required prior to landing
Activation date: 08/1986
Control tower: no
ARTCC: WASHINGTON CENTER
FSS: LEESBURG FLIGHT SERVICE STATION
Attendance: UNATNDD
Wind indicator: yes
Segmented circle: no

Airport Communications

WX AWOS-3 at HWY (4 nm SE): 120.350 (540-788-4078)
WX AWOS-3 at CJR (8 nm SW): 119.325 (540-727-0523)
WX AWOS-3PT at HEF (12 nm NE): PHONE 703-361-6160

Nearby radio navigation aids

VOR radial/distance  VOR name  Freq  Var
CSNr101/5.1CASANOVA VORTAC116.3006W
AMLr225/22.6ARMEL VOR/DME113.5008W
LDNr128/24.8LINDEN VORTAC114.3006W
BRVr322/26.1BROOKE VORTAC114.5009W
DCAr257/36.4WASHINGTON VOR/DME111.0009W

 
NDB name  Hdg/Dist  Freq  Var  ID
NAILR043/12.835110WMSQ -- ... --.-
GOODWIN LAKE178/19.522708WGDX --. -.. -..-
SHANNON337/26.423710WEZF . --.. ..-.
DAVEE276/30.422309WDAA -.. .- .-
CAVERNS106/33.724509WLUA .-.. ..- .-
GEORGETOWN248/34.532309WGTN --. - -.
OXONN268/35.133211WDCA -.. -.-. .-

Airport Services

Runway Information

Runway 18/36

Dimensions: 2600 x 50 ft. / 792 x 15 m
Surface: turf
RUNWAY 18  RUNWAY 36
Traffic pattern: leftright

Airport Ownership and Management from official FAA records

Ownership: Privately-owned
Owner: FRANK R. THOMPSON
9669 GREEN RD
MIDLAND, VA 22728
Phone (540) 439-2962
Manager: FRANK R. THOMPSON
9669 GREEN RD
MIDLAND, VA 22728
Phone (540) 439-2962

Airport Operational Statistics

Aircraft based on the field: 2
Single engine airplanes: 2
    

Instrument Procedures

There are no published instrument procedures at 53VA.

Some nearby airports with instrument procedures:

KHWY - Warrenton-Fauquier Airport (4 nm SE)
KCJR - Culpeper Regional Airport (8 nm SW)
KHEF - Manassas Regional Airport/Harry P. Davis Field (12 nm NE)
KRMN - Stafford Regional Airport (20 nm SE)
2VG2 - Upperville Airport (21 nm N)
 
Loc | Ops | Rwys | IFR | FBO | Links
Com | Nav | Svcs | Stats | Notes

AirNav Hotels Sweepstakes
 
Area around 53VA (Horse Feathers Airport)
 
Road maps at: MapQuest Bing Google
 
Aerial photo
No photo
 
Sectional chart

 
Airport distance calculator
Flying to Horse Feathers Airport? Find the distance to fly.

From to 53VA

Sunrise and sunset
Times for 23-Jun-2018
 Local
(UTC-4)
 Zulu
(UTC)
Morning civil twilight05:1609:16
Sunrise05:4809:48
Sunset20:3800:38
Evening civil twilight21:1001:10

Current date and time
Zulu (UTC)  23-Jun-2018 16:42:57
Local (UTC-4)  23-Jun-2018 12:42:57
 
METAR
KHWY 
4nm SE 
231615Z AUTO 00000KT 10SM OVC006 22/19 A2984 RMK AO2 T02210192
KHEF 
12nm NE 
231556Z 00000KT 10SM OVC006 21/19 A2985 RMK AO2 SLP115 T02060194 PNO $
KCJR 
19nm W 
231615Z AUTO 00000KT 10SM OVC006 22/20 A2985 RMK AO2 T02210199
TAF
KIAD 
23nm NE 
231504Z 2315/2418 VRB04KT 6SM BR OVC005 FM231700 20005KT P6SM OVC020 FM232000 22008KT P6SM SHRA VCTS OVC035CB FM240000 24005KT P6SM BKN050 FM241600 27008KT P6SM BKN040
KNYG 
24nm E 
2309/2409 VRB06KT 9999 BKN015 OVC025 QNH2971INS TEMPO 2309/2315 1200 FG BKN005 BKN010 TEMPO 2318/2400 VRB20G30KT -TSRA BR BKN030CB FM240000 VRB06KT 9999 FEW060 SCT080 QNH2973INS T29/2318Z T19/2409Z COR 1350 LAST NO AMDS AFT 2309 UNTIL 2415Z
KDAA 
28nm E 
230100Z 2301/2407 09009KT 6000 -DZ BR OVC010 QNH2977INS BECMG 2309/2310 06009KT 9999 NSW OVC006 QNH2980INS BECMG 2315/2316 19012G18KT 9999 BKN030 OVC050 QNH2970INS TEMPO 2320/2324 19025G40KT -TSRAGS OVC010CB BECMG 2323/2324 17012KT 9999 BKN030 QNH2976INS WND 27006KT AFT 2405 TX30/2321Z TN19/2307Z LAST NO AMDS AFT 2301 NEXT 2509
NOTAMs
Click for the latest NOTAMs
NOTAMs are issued by the DoD/FAA and will open in a separate window not controlled by AirNav.

 

 
 

Would you like to see your business listed on this page?

 If your business provides an interesting product or service to pilots, flight crews, aircraft, or users of the Horse Feathers Airport, you should consider listing it here.  To start the listing process, click on the button below
 
Add a business
 

Other Pages about Horse Feathers Airport

Update a link
 
Copyright © AirNav, LLC. All rights reserved. Privacy Policy  Contact